sensor_id;sensor_type;location;lat;lon;timestamp;temperature;humidity
21184;DHT22;18176;49.502;11.754;2022-12-24T00:00:35;9.60;99.90
21184;DHT22;18176;49.502;11.754;2022-12-24T00:04:38;9.60;99.90
21184;DHT22;18176;49.502;11.754;2022-12-24T00:08:38;9.60;99.90
21184;DHT22;18176;49.502;11.754;2022-12-24T00:12:39;9.70;99.90
21184;DHT22;18176;49.502;11.754;2022-12-24T00:16:39;9.70;99.90
21184;DHT22;18176;49.502;11.754;2022-12-24T00:20:44;9.60;99.90
21184;DHT22;18176;49.502;11.754;2022-12-24T00:24:46;9.60;99.90
21184;DHT22;18176;49.502;11.754;2022-12-24T00:28:46;9.40;99.90
21184;DHT22;18176;49.502;11.754;2022-12-24T00:32:47;9.40;99.90
21184;DHT22;18176;49.502;11.754;2022-12-24T00:36:50;9.40;99.90
21184;DHT22;18176;49.502;11.754;2022-12-24T00:40:51;9.40;99.90
21184;DHT22;18176;49.502;11.754;2022-12-24T00:44:51;9.50;99.90
21184;DHT22;18176;49.502;11.754;2022-12-24T00:48:51;9.50;99.90
21184;DHT22;18176;49.502;11.754;2022-12-24T00:52:54;9.50;99.90
21184;DHT22;18176;49.502;11.754;2022-12-24T00:56:54;9.50;99.90
21184;DHT22;18176;49.502;11.754;2022-12-24T01:00:54;9.50;99.90
21184;DHT22;18176;49.502;11.754;2022-12-24T01:04:55;9.60;99.90
21184;DHT22;18176;49.502;11.754;2022-12-24T01:09:12;9.50;99.90
21184;DHT22;18176;49.502;11.754;2022-12-24T01:13:13;9.50;99.90
21184;DHT22;18176;49.502;11.754;2022-12-24T01:17:13;9.50;99.90
21184;DHT22;18176;49.502;11.754;2022-12-24T01:21:14;9.50;99.90
21184;DHT22;18176;49.502;11.754;2022-12-24T01:25:17;9.60;99.90
21184;DHT22;18176;49.502;11.754;2022-12-24T01:29:17;9.60;99.90
21184;DHT22;18176;49.502;11.754;2022-12-24T01:33:17;9.60;99.90
21184;DHT22;18176;49.502;11.754;2022-12-24T01:37:18;9.60;99.90
21184;DHT22;18176;49.502;11.754;2022-12-24T01:41:22;9.80;99.90
21184;DHT22;18176;49.502;11.754;2022-12-24T01:45:44;9.80;99.90
21184;DHT22;18176;49.502;11.754;2022-12-24T01:49:50;9.80;99.90
21184;DHT22;18176;49.502;11.754;2022-12-24T01:53:55;9.70;99.90
21184;DHT22;18176;49.502;11.754;2022-12-24T01:58:02;9.60;99.90
21184;DHT22;18176;49.502;11.754;2022-12-24T02:02:05;9.60;99.90
21184;DHT22;18176;49.502;11.754;2022-12-24T02:06:07;9.70;99.90
21184;DHT22;18176;49.502;11.754;2022-12-24T02:10:10;9.70;99.90
21184;DHT22;18176;49.502;11.754;2022-12-24T02:14:15;9.60;99.90
21184;DHT22;18176;49.502;11.754;2022-12-24T02:18:20;9.60;99.90
21184;DHT22;18176;49.502;11.754;2022-12-24T02:22:32;9.50;99.90
21184;DHT22;18176;49.502;11.754;2022-12-24T02:27:09;9.50;99.90
21184;DHT22;18176;49.502;11.754;2022-12-24T02:31:22;9.40;99.90
21184;DHT22;18176;49.502;11.754;2022-12-24T02:35:31;9.40;99.90
21184;DHT22;18176;49.502;11.754;2022-12-24T02:39:39;9.30;99.90
21184;DHT22;18176;49.502;11.754;2022-12-24T02:43:46;9.30;99.90
21184;DHT22;18176;49.502;11.754;2022-12-24T02:47:51;9.30;99.90
21184;DHT22;18176;49.502;11.754;2022-12-24T02:51:54;9.20;99.90
21184;DHT22;18176;49.502;11.754;2022-12-24T02:56:25;9.10;99.90
21184;DHT22;18176;49.502;11.754;2022-12-24T03:00:42;9.10;99.90
21184;DHT22;18176;49.502;11.754;2022-12-24T03:05:11;9.00;99.90
21184;DHT22;18176;49.502;11.754;2022-12-24T03:09:25;8.90;99.90
21184;DHT22;18176;49.502;11.754;2022-12-24T03:13:27;8.90;99.90
21184;DHT22;18176;49.502;11.754;2022-12-24T03:17:28;8.90;99.90
21184;DHT22;18176;49.502;11.754;2022-12-24T03:21:34;8.90;99.90
21184;DHT22;18176;49.502;11.754;2022-12-24T03:25:42;9.00;99.90
21184;DHT22;18176;49.502;11.754;2022-12-24T03:29:44;8.90;99.90
21184;DHT22;18176;49.502;11.754;2022-12-24T03:33:45;9.10;99.90
21184;DHT22;18176;49.502;11.754;2022-12-24T03:37:48;9.10;99.90
21184;DHT22;18176;49.502;11.754;2022-12-24T03:41:51;9.10;99.90
21184;DHT22;18176;49.502;11.754;2022-12-24T03:45:51;9.10;99.90
21184;DHT22;18176;49.502;11.754;2022-12-24T03:49:51;9.10;99.90
21184;DHT22;18176;49.502;11.754;2022-12-24T03:53:55;8.90;99.90
21184;DHT22;18176;49.502;11.754;2022-12-24T03:57:56;8.90;99.90
21184;DHT22;18176;49.502;11.754;2022-12-24T04:01:56;9.00;99.90
21184;DHT22;18176;49.502;11.754;2022-12-24T04:06:01;9.00;99.90
21184;DHT22;18176;49.502;11.754;2022-12-24T04:10:07;9.00;99.90
21184;DHT22;18176;49.502;11.754;2022-12-24T04:14:07;9.10;99.90
21184;DHT22;18176;49.502;11.754;2022-12-24T04:18:07;9.10;99.90
21184;DHT22;18176;49.502;11.754;2022-12-24T04:22:07;9.10;99.90
21184;DHT22;18176;49.502;11.754;2022-12-24T04:26:11;9.10;99.90
21184;DHT22;18176;49.502;11.754;2022-12-24T04:30:12;9.10;99.90
21184;DHT22;18176;49.502;11.754;2022-12-24T04:34:12;9.10;99.90
21184;DHT22;18176;49.502;11.754;2022-12-24T04:38:12;9.20;99.90
21184;DHT22;18176;49.502;11.754;2022-12-24T04:42:15;9.20;99.90
21184;DHT22;18176;49.502;11.754;2022-12-24T04:46:17;9.20;99.90
21184;DHT22;18176;49.502;11.754;2022-12-24T04:50:20;9.20;99.90
21184;DHT22;18176;49.502;11.754;2022-12-24T04:54:20;9.20;99.90
21184;DHT22;18176;49.502;11.754;2022-12-24T04:58:23;9.10;99.90
21184;DHT22;18176;49.502;11.754;2022-12-24T05:02:23;9.00;99.90
21184;DHT22;18176;49.502;11.754;2022-12-24T05:06:28;8.90;99.90
21184;DHT22;18176;49.502;11.754;2022-12-24T05:10:29;8.90;99.90
21184;DHT22;18176;49.502;11.754;2022-12-24T05:14:32;8.90;99.90
21184;DHT22;18176;49.502;11.754;2022-12-24T05:18:32;8.90;99.90
21184;DHT22;18176;49.502;11.754;2022-12-24T05:22:32;9.00;99.90
21184;DHT22;18176;49.502;11.754;2022-12-24T05:26:47;8.90;99.90
21184;DHT22;18176;49.502;11.754;2022-12-24T05:30:52;9.00;99.90
21184;DHT22;18176;49.502;11.754;2022-12-24T05:34:52;9.00;99.90
21184;DHT22;18176;49.502;11.754;2022-12-24T05:38:52;9.10;99.90
21184;DHT22;18176;49.502;11.754;2022-12-24T05:42:53;8.90;99.90
21184;DHT22;18176;49.502;11.754;2022-12-24T05:46:55;8.80;99.90
21184;DHT22;18176;49.502;11.754;2022-12-24T05:50:56;8.80;99.90
21184;DHT22;18176;49.502;11.754;2022-12-24T05:54:56;8.70;99.90
21184;DHT22;18176;49.502;11.754;2022-12-24T05:58:56;8.70;99.90
21184;DHT22;18176;49.502;11.754;2022-12-24T06:02:59;8.70;99.90
21184;DHT22;18176;49.502;11.754;2022-12-24T06:06:59;8.60;99.90
21184;DHT22;18176;49.502;11.754;2022-12-24T06:11:02;8.50;99.90
21184;DHT22;18176;49.502;11.754;2022-12-24T06:15:05;8.50;99.90
21184;DHT22;18176;49.502;11.754;2022-12-24T06:19:09;8.30;99.90
21184;DHT22;18176;49.502;11.754;2022-12-24T06:23:09;8.30;99.90
21184;DHT22;18176;49.502;11.754;2022-12-24T06:27:09;8.20;99.90
21184;DHT22;18176;49.502;11.754;2022-12-24T06:31:12;8.10;99.90
21184;DHT22;18176;49.502;11.754;2022-12-24T06:35:16;8.10;99.90
21184;DHT22;18176;49.502;11.754;2022-12-24T06:39:16;8.10;99.90
21184;DHT22;18176;49.502;11.754;2022-12-24T06:43:16;8.10;99.90
21184;DHT22;18176;49.502;11.754;2022-12-24T06:47:16;8.10;99.90
21184;DHT22;18176;49.502;11.754;2022-12-24T06:51:19;8.10;99.90
21184;DHT22;18176;49.502;11.754;2022-12-24T06:55:20;8.00;99.90
21184;DHT22;18176;49.502;11.754;2022-12-24T06:59:20;8.00;99.90
21184;DHT22;18176;49.502;11.754;2022-12-24T07:03:20;8.00;99.90
21184;DHT22;18176;49.502;11.754;2022-12-24T07:07:23;8.00;99.90
21184;DHT22;18176;49.502;11.754;2022-12-24T07:11:24;8.10;99.90
21184;DHT22;18176;49.502;11.754;2022-12-24T07:15:25;8.10;99.90
21184;DHT22;18176;49.502;11.754;2022-12-24T07:19:25;8.10;99.90
21184;DHT22;18176;49.502;11.754;2022-12-24T07:23:28;8.20;99.90
21184;DHT22;18176;49.502;11.754;2022-12-24T07:27:28;8.20;99.90
21184;DHT22;18176;49.502;11.754;2022-12-24T07:31:29;8.30;99.90
21184;DHT22;18176;49.502;11.754;2022-12-24T07:35:29;8.30;99.90
21184;DHT22;18176;49.502;11.754;2022-12-24T07:39:32;8.30;99.90
21184;DHT22;18176;49.502;11.754;2022-12-24T07:43:32;8.30;99.90
21184;DHT22;18176;49.502;11.754;2022-12-24T07:47:33;8.30;99.90
21184;DHT22;18176;49.502;11.754;2022-12-24T07:51:33;8.30;99.90
21184;DHT22;18176;49.502;11.754;2022-12-24T07:55:36;8.30;99.90
21184;DHT22;18176;49.502;11.754;2022-12-24T07:59:37;8.30;99.90
21184;DHT22;18176;49.502;11.754;2022-12-24T08:03:37;8.30;99.90
21184;DHT22;18176;49.502;11.754;2022-12-24T08:07:38;8.30;99.90
21184;DHT22;18176;49.502;11.754;2022-12-24T08:11:40;8.40;99.90
21184;DHT22;18176;49.502;11.754;2022-12-24T08:15:48;8.40;99.90
21184;DHT22;18176;49.502;11.754;2022-12-24T08:19:48;8.50;99.90
21184;DHT22;18176;49.502;11.754;2022-12-24T08:23:48;8.60;99.90
21184;DHT22;18176;49.502;11.754;2022-12-24T08:27:51;8.60;99.90
21184;DHT22;18176;49.502;11.754;2022-12-24T08:31:51;8.70;99.90
21184;DHT22;18176;49.502;11.754;2022-12-24T08:35:52;8.90;99.90
21184;DHT22;18176;49.502;11.754;2022-12-24T08:39:53;8.90;99.90
21184;DHT22;18176;49.502;11.754;2022-12-24T08:43:56;8.90;99.90
21184;DHT22;18176;49.502;11.754;2022-12-24T08:47:58;9.00;99.90
21184;DHT22;18176;49.502;11.754;2022-12-24T08:51:58;9.20;99.90
21184;DHT22;18176;49.502;11.754;2022-12-24T08:56:00;9.50;99.90
21184;DHT22;18176;49.502;11.754;2022-12-24T09:00:05;9.70;99.90
21184;DHT22;18176;49.502;11.754;2022-12-24T09:04:07;9.80;99.90
21184;DHT22;18176;49.502;11.754;2022-12-24T09:08:07;9.90;99.90
21184;DHT22;18176;49.502;11.754;2022-12-24T09:12:07;9.70;99.90
21184;DHT22;18176;49.502;11.754;2022-12-24T09:16:11;9.60;99.90
21184;DHT22;18176;49.502;11.754;2022-12-24T09:20:12;9.50;99.90
21184;DHT22;18176;49.502;11.754;2022-12-24T09:24:12;9.60;99.90
21184;DHT22;18176;49.502;11.754;2022-12-24T09:28:13;9.70;99.90
21184;DHT22;18176;49.502;11.754;2022-12-24T09:32:16;9.70;99.90
21184;DHT22;18176;49.502;11.754;2022-12-24T09:36:16;10.00;99.90
21184;DHT22;18176;49.502;11.754;2022-12-24T09:40:24;10.50;99.90
21184;DHT22;18176;49.502;11.754;2022-12-24T09:44:35;10.90;99.90
21184;DHT22;18176;49.502;11.754;2022-12-24T09:48:48;10.80;99.90
21184;DHT22;18176;49.502;11.754;2022-12-24T09:52:51;10.50;99.90
21184;DHT22;18176;49.502;11.754;2022-12-24T09:56:54;10.20;99.90
21184;DHT22;18176;49.502;11.754;2022-12-24T10:00:59;10.20;99.90
21184;DHT22;18176;49.502;11.754;2022-12-24T10:05:02;10.10;99.90
21184;DHT22;18176;49.502;11.754;2022-12-24T10:09:17;10.00;99.90
21184;DHT22;18176;49.502;11.754;2022-12-24T10:13:38;10.00;99.90
21184;DHT22;18176;49.502;11.754;2022-12-24T10:18:05;10.20;99.90
21184;DHT22;18176;49.502;11.754;2022-12-24T10:22:21;10.40;99.90
21184;DHT22;18176;49.502;11.754;2022-12-24T10:26:31;10.40;99.90
21184;DHT22;18176;49.502;11.754;2022-12-24T10:30:37;10.30;99.90
21184;DHT22;18176;49.502;11.754;2022-12-24T10:34:42;10.70;99.90
21184;DHT22;18176;49.502;11.754;2022-12-24T10:38:46;11.00;99.90
21184;DHT22;18176;49.502;11.754;2022-12-24T10:42:46;11.20;99.90
21184;DHT22;18176;49.502;11.754;2022-12-24T10:46:47;11.10;99.90
21184;DHT22;18176;49.502;11.754;2022-12-24T10:50:53;10.80;99.90
21184;DHT22;18176;49.502;11.754;2022-12-24T10:55:10;10.80;99.90
21184;DHT22;18176;49.502;11.754;2022-12-24T10:59:24;10.50;99.90
21184;DHT22;18176;49.502;11.754;2022-12-24T11:03:30;10.60;99.90
21184;DHT22;18176;49.502;11.754;2022-12-24T11:07:32;10.60;99.90
21184;DHT22;18176;49.502;11.754;2022-12-24T11:11:36;10.60;99.90
21184;DHT22;18176;49.502;11.754;2022-12-24T11:15:36;10.70;99.90
21184;DHT22;18176;49.502;11.754;2022-12-24T11:19:37;10.80;99.90
21184;DHT22;18176;49.502;11.754;2022-12-24T11:23:38;11.00;99.90
21184;DHT22;18176;49.502;11.754;2022-12-24T11:27:42;11.40;99.90
21184;DHT22;18176;49.502;11.754;2022-12-24T11:31:47;11.30;99.90
21184;DHT22;18176;49.502;11.754;2022-12-24T11:36:03;11.10;99.90
21184;DHT22;18176;49.502;11.754;2022-12-24T11:40:18;10.90;99.90
21184;DHT22;18176;49.502;11.754;2022-12-24T11:44:25;10.60;99.90
21184;DHT22;18176;49.502;11.754;2022-12-24T11:48:28;10.40;99.90
21184;DHT22;18176;49.502;11.754;2022-12-24T11:52:30;10.50;99.90
21184;DHT22;18176;49.502;11.754;2022-12-24T11:56:36;10.70;99.90
21184;DHT22;18176;49.502;11.754;2022-12-24T12:00:43;11.00;99.90
21184;DHT22;18176;49.502;11.754;2022-12-24T12:04:48;11.10;99.90
21184;DHT22;18176;49.502;11.754;2022-12-24T12:08:55;11.00;99.90
21184;DHT22;18176;49.502;11.754;2022-12-24T12:13:02;10.70;99.90
21184;DHT22;18176;49.502;11.754;2022-12-24T12:17:25;10.70;99.90
21184;DHT22;18176;49.502;11.754;2022-12-24T12:21:34;11.30;99.90
21184;DHT22;18176;49.502;11.754;2022-12-24T12:25:45;11.70;99.90
21184;DHT22;18176;49.502;11.754;2022-12-24T12:29:55;11.80;99.90
21184;DHT22;18176;49.502;11.754;2022-12-24T12:34:04;11.50;99.90
21184;DHT22;18176;49.502;11.754;2022-12-24T12:38:12;11.20;99.90
21184;DHT22;18176;49.502;11.754;2022-12-24T12:42:23;11.70;99.90
21184;DHT22;18176;49.502;11.754;2022-12-24T12:46:35;11.90;99.90
21184;DHT22;18176;49.502;11.754;2022-12-24T12:50:53;11.90;99.90
21184;DHT22;18176;49.502;11.754;2022-12-24T12:55:10;11.60;99.90
21184;DHT22;18176;49.502;11.754;2022-12-24T12:59:28;11.20;99.90
21184;DHT22;18176;49.502;11.754;2022-12-24T13:03:47;11.20;99.90
21184;DHT22;18176;49.502;11.754;2022-12-24T13:08:34;11.20;99.90
21184;DHT22;18176;49.502;11.754;2022-12-24T13:17:52;10.90;99.90
21184;DHT22;18176;49.502;11.754;2022-12-24T13:22:13;11.70;99.90
21184;DHT22;18176;49.502;11.754;2022-12-24T13:26:17;12.70;99.90
21184;DHT22;18176;49.502;11.754;2022-12-24T13:30:36;12.30;99.90
21184;DHT22;18176;49.502;11.754;2022-12-24T13:34:37;11.70;99.90
21184;DHT22;18176;49.502;11.754;2022-12-24T13:38:42;11.20;99.90
21184;DHT22;18176;49.502;11.754;2022-12-24T13:43:06;10.90;99.90
21184;DHT22;18176;49.502;11.754;2022-12-24T13:47:19;10.70;99.90
21184;DHT22;18176;49.502;11.754;2022-12-24T13:51:28;10.60;99.90
21184;DHT22;18176;49.502;11.754;2022-12-24T13:55:32;10.70;99.90
21184;DHT22;18176;49.502;11.754;2022-12-24T13:59:36;10.60;99.90
21184;DHT22;18176;49.502;11.754;2022-12-24T14:03:42;10.40;99.90
21184;DHT22;18176;49.502;11.754;2022-12-24T14:07:46;10.30;99.90
21184;DHT22;18176;49.502;11.754;2022-12-24T14:12:12;10.20;99.90
21184;DHT22;18176;49.502;11.754;2022-12-24T14:16:26;10.20;99.90
21184;DHT22;18176;49.502;11.754;2022-12-24T14:20:30;10.10;99.90
21184;DHT22;18176;49.502;11.754;2022-12-24T14:24:33;10.10;99.90
21184;DHT22;18176;49.502;11.754;2022-12-24T14:28:39;10.00;99.90
21184;DHT22;18176;49.502;11.754;2022-12-24T14:32:45;9.90;99.90
21184;DHT22;18176;49.502;11.754;2022-12-24T14:36:48;9.80;99.90
21184;DHT22;18176;49.502;11.754;2022-12-24T14:40:58;9.60;99.90
21184;DHT22;18176;49.502;11.754;2022-12-24T14:45:15;9.60;99.90
21184;DHT22;18176;49.502;11.754;2022-12-24T14:49:34;9.50;99.90
21184;DHT22;18176;49.502;11.754;2022-12-24T14:53:59;9.40;99.90
21184;DHT22;18176;49.502;11.754;2022-12-24T14:58:23;9.30;99.90
21184;DHT22;18176;49.502;11.754;2022-12-24T15:02:42;9.10;99.90
21184;DHT22;18176;49.502;11.754;2022-12-24T15:06:50;9.00;99.90
21184;DHT22;18176;49.502;11.754;2022-12-24T15:10:56;9.00;99.90
21184;DHT22;18176;49.502;11.754;2022-12-24T15:14:59;8.90;99.90
21184;DHT22;18176;49.502;11.754;2022-12-24T15:19:03;8.90;99.90
21184;DHT22;18176;49.502;11.754;2022-12-24T15:23:17;9.00;99.90
21184;DHT22;18176;49.502;11.754;2022-12-24T15:27:21;8.90;99.90
21184;DHT22;18176;49.502;11.754;2022-12-24T15:31:24;8.80;99.90
21184;DHT22;18176;49.502;11.754;2022-12-24T15:35:33;8.60;99.90
21184;DHT22;18176;49.502;11.754;2022-12-24T15:39:55;8.40;99.90
21184;DHT22;18176;49.502;11.754;2022-12-24T15:44:01;8.30;99.90
21184;DHT22;18176;49.502;11.754;2022-12-24T15:48:07;8.20;99.90
21184;DHT22;18176;49.502;11.754;2022-12-24T15:52:13;8.10;99.90
21184;DHT22;18176;49.502;11.754;2022-12-24T15:56:31;8.10;99.90
21184;DHT22;18176;49.502;11.754;2022-12-24T16:00:34;8.20;99.90
21184;DHT22;18176;49.502;11.754;2022-12-24T16:04:34;8.20;99.90
21184;DHT22;18176;49.502;11.754;2022-12-24T16:08:36;8.30;99.90
21184;DHT22;18176;49.502;11.754;2022-12-24T16:12:39;8.40;99.90
21184;DHT22;18176;49.502;11.754;2022-12-24T16:16:41;8.30;99.90
21184;DHT22;18176;49.502;11.754;2022-12-24T16:20:48;8.20;99.90
21184;DHT22;18176;49.502;11.754;2022-12-24T16:24:49;7.90;99.90
21184;DHT22;18176;49.502;11.754;2022-12-24T16:28:54;7.80;99.90
21184;DHT22;18176;49.502;11.754;2022-12-24T16:32:54;7.80;99.90
21184;DHT22;18176;49.502;11.754;2022-12-24T16:36:55;7.70;99.90
21184;DHT22;18176;49.502;11.754;2022-12-24T16:40:57;7.60;99.90
21184;DHT22;18176;49.502;11.754;2022-12-24T16:45:00;7.50;99.90
21184;DHT22;18176;49.502;11.754;2022-12-24T16:49:00;7.40;99.90
21184;DHT22;18176;49.502;11.754;2022-12-24T16:53:00;7.40;99.90
21184;DHT22;18176;49.502;11.754;2022-12-24T16:57:00;7.50;99.90
21184;DHT22;18176;49.502;11.754;2022-12-24T17:01:08;7.50;99.90
21184;DHT22;18176;49.502;11.754;2022-12-24T17:05:09;7.70;99.90
21184;DHT22;18176;49.502;11.754;2022-12-24T17:09:10;7.70;99.90
21184;DHT22;18176;49.502;11.754;2022-12-24T17:13:11;7.80;99.90
21184;DHT22;18176;49.502;11.754;2022-12-24T17:17:20;7.80;99.90
21184;DHT22;18176;49.502;11.754;2022-12-24T17:21:23;7.80;99.90
21184;DHT22;18176;49.502;11.754;2022-12-24T17:25:23;8.00;99.90
21184;DHT22;18176;49.502;11.754;2022-12-24T17:29:23;8.20;99.90
21184;DHT22;18176;49.502;11.754;2022-12-24T17:33:26;8.20;99.90
21184;DHT22;18176;49.502;11.754;2022-12-24T17:37:26;8.20;99.90
21184;DHT22;18176;49.502;11.754;2022-12-24T17:41:26;8.10;99.90
21184;DHT22;18176;49.502;11.754;2022-12-24T17:45:26;8.10;99.90
21184;DHT22;18176;49.502;11.754;2022-12-24T17:49:29;8.10;99.90
21184;DHT22;18176;49.502;11.754;2022-12-24T17:53:30;8.10;99.90
21184;DHT22;18176;49.502;11.754;2022-12-24T17:57:31;8.00;99.90
21184;DHT22;18176;49.502;11.754;2022-12-24T18:01:31;7.90;99.90
21184;DHT22;18176;49.502;11.754;2022-12-24T18:05:35;7.90;99.90
21184;DHT22;18176;49.502;11.754;2022-12-24T18:09:37;7.90;99.90
21184;DHT22;18176;49.502;11.754;2022-12-24T18:13:38;7.80;99.90
21184;DHT22;18176;49.502;11.754;2022-12-24T18:17:38;7.80;99.90
21184;DHT22;18176;49.502;11.754;2022-12-24T18:21:41;7.90;99.90
21184;DHT22;18176;49.502;11.754;2022-12-24T18:25:41;7.90;99.90
21184;DHT22;18176;49.502;11.754;2022-12-24T18:29:42;7.90;99.90
21184;DHT22;18176;49.502;11.754;2022-12-24T18:33:42;7.90;99.90
21184;DHT22;18176;49.502;11.754;2022-12-24T18:37:46;7.90;99.90
21184;DHT22;18176;49.502;11.754;2022-12-24T18:41:46;7.90;99.90
21184;DHT22;18176;49.502;11.754;2022-12-24T18:45:46;8.00;99.90
21184;DHT22;18176;49.502;11.754;2022-12-24T18:49:46;8.00;99.90
21184;DHT22;18176;49.502;11.754;2022-12-24T18:53:49;8.10;99.90
21184;DHT22;18176;49.502;11.754;2022-12-24T18:57:49;8.10;99.90
21184;DHT22;18176;49.502;11.754;2022-12-24T19:01:49;8.10;99.90
21184;DHT22;18176;49.502;11.754;2022-12-24T19:05:50;8.10;99.90
21184;DHT22;18176;49.502;11.754;2022-12-24T19:09:53;8.20;99.90
21184;DHT22;18176;49.502;11.754;2022-12-24T19:13:53;8.20;99.90
21184;DHT22;18176;49.502;11.754;2022-12-24T19:17:54;8.30;99.90
21184;DHT22;18176;49.502;11.754;2022-12-24T19:21:54;8.20;99.90
21184;DHT22;18176;49.502;11.754;2022-12-24T19:25:57;8.30;99.90
21184;DHT22;18176;49.502;11.754;2022-12-24T19:29:57;8.30;99.90
21184;DHT22;18176;49.502;11.754;2022-12-24T19:33:57;8.30;99.90
21184;DHT22;18176;49.502;11.754;2022-12-24T19:37:58;8.30;99.90
21184;DHT22;18176;49.502;11.754;2022-12-24T19:42:01;8.30;99.90
21184;DHT22;18176;49.502;11.754;2022-12-24T19:46:01;8.30;99.90
21184;DHT22;18176;49.502;11.754;2022-12-24T19:50:02;8.30;99.90
21184;DHT22;18176;49.502;11.754;2022-12-24T19:54:04;8.30;99.90
21184;DHT22;18176;49.502;11.754;2022-12-24T19:58:17;8.30;99.90
21184;DHT22;18176;49.502;11.754;2022-12-24T20:02:17;8.20;99.90
21184;DHT22;18176;49.502;11.754;2022-12-24T20:06:19;8.20;99.90
21184;DHT22;18176;49.502;11.754;2022-12-24T20:10:21;8.30;99.90
21184;DHT22;18176;49.502;11.754;2022-12-24T20:14:24;8.30;99.90
21184;DHT22;18176;49.502;11.754;2022-12-24T20:18:24;8.30;99.90
21184;DHT22;18176;49.502;11.754;2022-12-24T20:22:24;8.20;99.90
21184;DHT22;18176;49.502;11.754;2022-12-24T20:26:27;8.20;99.90
21184;DHT22;18176;49.502;11.754;2022-12-24T20:30:32;8.20;99.90
21184;DHT22;18176;49.502;11.754;2022-12-24T20:34:36;8.20;99.90
21184;DHT22;18176;49.502;11.754;2022-12-24T20:38:36;8.20;99.90
21184;DHT22;18176;49.502;11.754;2022-12-24T20:42:36;8.10;99.90
21184;DHT22;18176;49.502;11.754;2022-12-24T20:46:39;8.20;99.90
21184;DHT22;18176;49.502;11.754;2022-12-24T20:50:39;8.10;99.90
21184;DHT22;18176;49.502;11.754;2022-12-24T20:54:40;8.10;99.90
21184;DHT22;18176;49.502;11.754;2022-12-24T20:58:40;8.10;99.90
21184;DHT22;18176;49.502;11.754;2022-12-24T21:02:43;8.10;99.90
21184;DHT22;18176;49.502;11.754;2022-12-24T21:06:44;8.00;99.90
21184;DHT22;18176;49.502;11.754;2022-12-24T21:10:45;8.00;99.90
21184;DHT22;18176;49.502;11.754;2022-12-24T21:15:06;8.00;99.90
21184;DHT22;18176;49.502;11.754;2022-12-24T21:19:12;8.00;99.90
21184;DHT22;18176;49.502;11.754;2022-12-24T21:23:16;8.00;99.90
21184;DHT22;18176;49.502;11.754;2022-12-24T21:27:17;8.00;99.90
21184;DHT22;18176;49.502;11.754;2022-12-24T21:31:20;8.00;99.90
21184;DHT22;18176;49.502;11.754;2022-12-24T21:35:23;8.00;99.90
21184;DHT22;18176;49.502;11.754;2022-12-24T21:39:23;7.90;99.90
21184;DHT22;18176;49.502;11.754;2022-12-24T21:43:23;7.90;99.90
21184;DHT22;18176;49.502;11.754;2022-12-24T21:47:23;7.90;99.90
21184;DHT22;18176;49.502;11.754;2022-12-24T21:51:27;7.90;99.90
21184;DHT22;18176;49.502;11.754;2022-12-24T21:55:24;7.90;99.90
21184;DHT22;18176;49.502;11.754;2022-12-24T21:59:25;7.90;99.90
21184;DHT22;18176;49.502;11.754;2022-12-24T22:03:26;7.90;99.90
21184;DHT22;18176;49.502;11.754;2022-12-24T22:07:29;7.80;99.90
21184;DHT22;18176;49.502;11.754;2022-12-24T22:11:41;7.80;99.90
21184;DHT22;18176;49.502;11.754;2022-12-24T22:15:52;7.70;99.90
21184;DHT22;18176;49.502;11.754;2022-12-24T22:19:52;7.60;99.90
21184;DHT22;18176;49.502;11.754;2022-12-24T22:23:59;7.60;99.90
21184;DHT22;18176;49.502;11.754;2022-12-24T22:28:03;7.50;99.90
21184;DHT22;18176;49.502;11.754;2022-12-24T22:32:04;7.50;99.90
21184;DHT22;18176;49.502;11.754;2022-12-24T22:36:05;7.50;99.90
21184;DHT22;18176;49.502;11.754;2022-12-24T22:40:10;7.50;99.90
21184;DHT22;18176;49.502;11.754;2022-12-24T22:44:11;7.50;99.90
21184;DHT22;18176;49.502;11.754;2022-12-24T22:48:11;7.60;99.90
21184;DHT22;18176;49.502;11.754;2022-12-24T22:52:11;7.60;99.90
21184;DHT22;18176;49.502;11.754;2022-12-24T22:56:16;7.60;99.90
21184;DHT22;18176;49.502;11.754;2022-12-24T23:00:36;7.70;99.90
21184;DHT22;18176;49.502;11.754;2022-12-24T23:04:39;7.70;99.90
21184;DHT22;18176;49.502;11.754;2022-12-24T23:08:40;7.60;99.90
21184;DHT22;18176;49.502;11.754;2022-12-24T23:12:42;7.60;99.90
21184;DHT22;18176;49.502;11.754;2022-12-24T23:16:55;7.70;99.90
21184;DHT22;18176;49.502;11.754;2022-12-24T23:20:55;7.70;99.90
21184;DHT22;18176;49.502;11.754;2022-12-24T23:24:55;7.70;99.90
21184;DHT22;18176;49.502;11.754;2022-12-24T23:28:58;7.70;99.90
21184;DHT22;18176;49.502;11.754;2022-12-24T23:32:58;7.70;99.90
21184;DHT22;18176;49.502;11.754;2022-12-24T23:36:58;7.70;99.90
21184;DHT22;18176;49.502;11.754;2022-12-24T23:41:00;7.70;99.90
21184;DHT22;18176;49.502;11.754;2022-12-24T23:45:05;7.70;99.90
21184;DHT22;18176;49.502;11.754;2022-12-24T23:49:06;7.60;99.90
21184;DHT22;18176;49.502;11.754;2022-12-24T23:53:06;7.60;99.90
21184;DHT22;18176;49.502;11.754;2022-12-24T23:57:06;7.50;99.90
